createdAt,value
2022-08-08T00:00:57.727Z,16.67
2022-08-08T00:06:05.552Z,16.57
2022-08-08T00:11:46.144Z,16.33
2022-08-08T00:17:23.150Z,16.31
2022-08-08T00:22:28.887Z,16.32
2022-08-08T00:27:32.966Z,16.29
2022-08-08T00:33:29.135Z,16.18
2022-08-08T00:38:59.695Z,16.09
2022-08-08T00:44:39.287Z,16.13
2022-08-08T00:50:18.807Z,16.12
2022-08-08T00:55:53.227Z,15.84
2022-08-08T01:01:38.305Z,15.62
2022-08-08T01:07:54.729Z,15.45
2022-08-08T01:13:01.596Z,15.41
2022-08-08T01:18:52.750Z,15.42
2022-08-08T01:24:31.878Z,15.49
2022-08-08T01:29:59.384Z,15.49
2022-08-08T01:35:29.561Z,15.38
2022-08-08T01:40:56.334Z,15.14
2022-08-08T01:46:33.675Z,14.92
2022-08-08T01:53:35.319Z,14.74
2022-08-08T01:58:10.868Z,14.69
2022-08-08T02:03:55.380Z,14.54
2022-08-08T02:09:00.613Z,14.44
2022-08-08T02:14:26.623Z,14.44
2022-08-08T02:20:07.268Z,14.57
2022-08-08T02:24:59.746Z,14.59
2022-08-08T02:30:20.677Z,14.63
2022-08-08T02:36:04.448Z,14.48
2022-08-08T02:41:59.076Z,14.43
2022-08-08T02:47:12.247Z,14.15
2022-08-08T02:52:46.999Z,14.10
2022-08-08T02:58:18.934Z,13.92
2022-08-08T03:05:01.422Z,13.76
2022-08-08T03:09:19.724Z,13.65
2022-08-08T03:15:58.741Z,13.59
2022-08-08T03:20:10.301Z,13.47
2022-08-08T03:25:17.869Z,13.45
2022-08-08T03:30:21.712Z,13.36
2022-08-08T03:35:26.458Z,13.32
2022-08-08T03:40:32.399Z,13.35
2022-08-08T03:46:05.320Z,13.23
2022-08-08T03:51:03.065Z,13.12
2022-08-08T03:56:05.021Z,13.05
2022-08-08T04:01:24.617Z,13.00
2022-08-08T04:06:31.533Z,13.04
2022-08-08T04:11:57.929Z,13.00
2022-08-08T04:17:22.586Z,12.95
2022-08-08T04:22:33.120Z,12.98
2022-08-08T04:28:02.832Z,13.19
2022-08-08T04:32:58.442Z,13.33
2022-08-08T04:38:04.788Z,13.38
2022-08-08T04:43:10.724Z,13.30
2022-08-08T04:48:17.326Z,13.32
2022-08-08T04:54:36.323Z,13.41
2022-08-08T04:58:48.462Z,13.61
2022-08-08T05:04:09.709Z,13.66
2022-08-08T05:09:18.869Z,13.84
2022-08-08T05:14:22.386Z,13.98
2022-08-08T05:20:09.391Z,14.16
2022-08-08T05:24:55.964Z,14.25
2022-08-08T05:29:58.696Z,14.41
2022-08-08T05:35:06.066Z,14.47
2022-08-08T05:40:12.228Z,14.45
2022-08-08T05:45:25.279Z,14.48
2022-08-08T05:50:36.200Z,14.57
2022-08-08T05:56:07.660Z,14.71
2022-08-08T06:01:01.239Z,14.86
2022-08-08T06:06:06.895Z,14.93
2022-08-08T06:11:13.428Z,15.00
2022-08-08T06:16:27.411Z,15.20
2022-08-08T06:21:51.663Z,15.37
2022-08-08T06:27:06.187Z,15.52
2022-08-08T06:32:15.197Z,15.63
2022-08-08T06:37:24.635Z,15.78
2022-08-08T06:42:47.593Z,15.84
2022-08-08T06:48:01.529Z,16.01
2022-08-08T06:53:17.188Z,16.09
2022-08-08T06:58:30.229Z,16.30
2022-08-08T07:04:37.800Z,16.44
2022-08-08T07:09:59.647Z,16.60
2022-08-08T07:15:06.363Z,16.71
2022-08-08T07:20:28.285Z,16.88
2022-08-08T07:25:32.524Z,16.96
2022-08-08T07:30:34.836Z,17.09
2022-08-08T07:35:36.624Z,17.26
2022-08-08T07:40:40.019Z,17.37
2022-08-08T07:46:05.385Z,17.53
2022-08-08T07:51:22.873Z,17.77
2022-08-08T07:56:36.808Z,17.97
2022-08-08T08:02:34.594Z,18.09
2022-08-08T08:07:08.737Z,18.18
2022-08-08T08:12:26.583Z,18.36
2022-08-08T08:17:47.801Z,18.60
2022-08-08T08:22:52.620Z,18.90
2022-08-08T08:27:55.117Z,19.17
2022-08-08T08:32:57.135Z,19.31
2022-08-08T08:38:18.388Z,19.54
2022-08-08T08:43:26.684Z,19.68
2022-08-08T08:48:31.263Z,19.84
2022-08-08T08:53:56.562Z,19.95
2022-08-08T08:59:01.612Z,20.20
2022-08-08T09:04:31.436Z,20.34
2022-08-08T09:09:40.025Z,20.57
2022-08-08T09:14:56.779Z,20.71
2022-08-08T09:21:59.849Z,20.73
2022-08-08T09:25:35.528Z,20.90
2022-08-08T09:30:38.460Z,21.11
2022-08-08T09:35:50.160Z,21.26
2022-08-08T09:40:57.749Z,21.31
2022-08-08T09:46:03.468Z,21.42
2022-08-08T09:51:05.902Z,21.52
2022-08-08T09:56:12.573Z,21.56
2022-08-08T10:01:59.584Z,21.65
2022-08-08T10:06:47.345Z,21.70
2022-08-08T10:12:28.217Z,21.75
2022-08-08T10:18:06.565Z,21.85
2022-08-08T10:22:54.850Z,21.95
2022-08-08T10:27:57.839Z,22.19
2022-08-08T10:33:00.841Z,22.40
2022-08-08T10:38:05.302Z,22.55
2022-08-08T10:43:09.986Z,22.64
2022-08-08T10:48:12.929Z,22.67
2022-08-08T10:53:16.249Z,22.82
2022-08-08T10:58:18.183Z,23.10
2022-08-08T11:03:36.556Z,23.30
2022-08-08T11:08:50.024Z,23.57
2022-08-08T11:14:00.549Z,23.80
2022-08-08T11:19:03.913Z,23.95
2022-08-08T11:24:05.962Z,24.30
2022-08-08T11:29:07.922Z,24.66
2022-08-08T11:34:23.158Z,24.80
2022-08-08T11:39:37.169Z,25.53
2022-08-08T11:44:39.125Z,25.64
2022-08-08T11:49:44.711Z,26.09
2022-08-08T11:54:50.863Z,26.70
2022-08-08T12:00:00.227Z,27.21
2022-08-08T12:05:14.002Z,26.45
2022-08-08T12:10:17.765Z,25.94
2022-08-08T12:15:41.891Z,26.24
2022-08-08T12:20:45.138Z,27.07
2022-08-08T12:25:52.760Z,27.44
2022-08-08T12:31:05.816Z,28.19
2022-08-08T12:36:14.905Z,29.07
2022-08-08T12:41:34.076Z,29.01
2022-08-08T12:46:58.849Z,28.09
2022-08-08T12:52:03.513Z,27.62
2022-08-08T12:57:21.463Z,28.12
2022-08-08T13:02:36.347Z,27.33
2022-08-08T13:08:03.711Z,27.74
2022-08-08T13:13:05.891Z,28.47
2022-08-08T13:18:13.616Z,28.48
2022-08-08T13:23:30.832Z,28.69
2022-08-08T13:28:38.028Z,29.55
2022-08-08T13:33:45.867Z,28.85
2022-08-08T13:38:49.257Z,27.82
2022-08-08T13:43:51.295Z,27.46
2022-08-08T13:50:32.079Z,27.21
2022-08-08T13:54:20.411Z,27.10
2022-08-08T13:59:39.277Z,27.66
2022-08-08T14:04:57.489Z,28.30
2022-08-08T14:10:11.640Z,28.18
2022-08-08T14:15:31.735Z,27.82
2022-08-08T14:20:56.958Z,27.85
2022-08-08T14:26:10.539Z,28.34
2022-08-08T14:31:20.151Z,27.84
2022-08-08T14:36:33.390Z,27.34
2022-08-08T14:41:53.399Z,26.79
2022-08-08T14:47:00.347Z,26.51
2022-08-08T14:52:09.207Z,26.31
2022-08-08T14:57:12.580Z,26.15
2022-08-08T15:02:25.839Z,26.04
2022-08-08T15:07:39.535Z,25.87
2022-08-08T15:12:48.904Z,25.91
2022-08-08T15:17:51.059Z,26.42
2022-08-08T15:22:52.829Z,26.49
2022-08-08T15:28:04.815Z,26.48
2022-08-08T15:33:35.161Z,27.13
2022-08-08T15:38:40.553Z,27.02
2022-08-08T15:43:42.564Z,26.71
2022-08-08T15:49:04.050Z,26.61
2022-08-08T15:54:06.036Z,27.11
2022-08-08T15:59:20.464Z,27.82
2022-08-08T16:04:42.484Z,27.98
2022-08-08T16:13:03.531Z,27.82
2022-08-08T16:15:06.919Z,28.46
2022-08-08T16:20:13.366Z,28.72
2022-08-08T16:25:15.923Z,29.05
2022-08-08T16:30:36.252Z,29.26
2022-08-08T16:35:38.621Z,29.67
2022-08-08T16:40:40.707Z,29.82
2022-08-08T16:46:43.937Z,30.02
2022-08-08T16:51:04.160Z,30.10
2022-08-08T16:56:14.068Z,30.07
2022-08-08T17:01:16.814Z,30.02
2022-08-08T17:06:37.702Z,30.04
2022-08-08T17:11:49.045Z,29.88
2022-08-08T17:16:58.306Z,29.90
2022-08-08T17:22:01.376Z,29.93
2022-08-08T17:27:04.617Z,29.68
2022-08-08T17:32:08.027Z,29.48
2022-08-08T17:37:12.669Z,29.22
2022-08-08T17:42:16.087Z,29.12
2022-08-08T17:47:37.554Z,28.83
2022-08-08T17:52:42.984Z,28.64
2022-08-08T17:57:45.042Z,28.40
2022-08-08T18:02:58.169Z,28.23
2022-08-08T18:08:08.485Z,27.99
2022-08-08T18:13:11.331Z,27.78
2022-08-08T18:18:28.895Z,27.54
2022-08-08T18:23:33.225Z,27.22
2022-08-08T18:28:54.359Z,26.98
2022-08-08T18:34:12.452Z,26.73
2022-08-08T18:39:28.573Z,26.46
2022-08-08T18:44:33.158Z,26.12
2022-08-08T18:49:54.740Z,25.67
2022-08-08T18:55:10.654Z,25.21
2022-08-08T19:00:21.310Z,24.80
2022-08-08T19:05:30.675Z,24.51
2022-08-08T19:10:35.792Z,24.10
2022-08-08T19:15:38.062Z,23.78
2022-08-08T19:20:39.926Z,23.52
2022-08-08T19:26:19.856Z,23.30
2022-08-08T19:31:09.186Z,23.06
2022-08-08T19:36:14.396Z,22.79
2022-08-08T19:41:20.952Z,22.60
2022-08-08T19:46:23.580Z,22.33
2022-08-08T19:51:39.616Z,22.09
2022-08-08T19:56:48.893Z,21.90
2022-08-08T20:02:03.447Z,21.71
2022-08-08T20:08:27.304Z,21.61
2022-08-08T20:12:32.374Z,21.40
2022-08-08T20:17:38.354Z,21.25
2022-08-08T20:22:40.781Z,21.10
2022-08-08T20:27:49.382Z,20.96
2022-08-08T20:32:52.357Z,20.80
2022-08-08T20:37:55.248Z,20.65
2022-08-08T20:42:56.955Z,20.53
2022-08-08T20:48:01.558Z,20.41
2022-08-08T20:53:03.752Z,20.29
2022-08-08T20:58:13.981Z,20.13
2022-08-08T21:03:24.861Z,20.02
2022-08-08T21:08:37.396Z,19.95
2022-08-08T21:13:52.487Z,19.81
2022-08-08T21:18:57.242Z,19.71
2022-08-08T21:24:03.683Z,19.61
2022-08-08T21:29:06.173Z,19.46
2022-08-08T21:34:09.261Z,19.39
2022-08-08T21:39:21.837Z,19.29
2022-08-08T21:44:23.834Z,19.33
2022-08-08T21:49:26.441Z,19.23
2022-08-08T21:54:51.638Z,19.14
2022-08-08T22:00:03.282Z,19.04
2022-08-08T22:05:15.376Z,19.01
2022-08-08T22:10:28.504Z,18.94
2022-08-08T22:15:34.705Z,18.92
2022-08-08T22:20:36.582Z,18.89
2022-08-08T22:26:20.051Z,18.83
2022-08-08T22:31:02.469Z,18.84
2022-08-08T22:36:12.517Z,18.84
2022-08-08T22:41:16.419Z,18.81
2022-08-08T22:46:23.682Z,18.67
2022-08-08T22:51:29.273Z,18.51
2022-08-08T22:56:36.674Z,18.39
2022-08-08T23:02:02.102Z,18.24
2022-08-08T23:07:02.472Z,18.16
2022-08-08T23:12:18.480Z,18.00
2022-08-08T23:17:30.028Z,17.79
2022-08-08T23:22:32.088Z,17.68
2022-08-08T23:27:39.472Z,17.55
2022-08-08T23:32:48.895Z,17.50
2022-08-08T23:38:01.821Z,17.48
2022-08-08T23:43:05.144Z,17.43
2022-08-08T23:49:01.957Z,17.41
2022-08-08T23:54:06.086Z,17.39
2022-08-08T23:58:50.490Z,17.41
